createdAt,value
2023-03-16T00:00:26.846Z,81.57
2023-03-16T00:03:13.903Z,81.57
2023-03-16T00:05:40.704Z,81.49
2023-03-16T00:08:06.966Z,81.59
2023-03-16T00:10:33.286Z,81.87
2023-03-16T00:13:00.009Z,81.89
2023-03-16T00:15:26.278Z,82.03
2023-03-16T00:17:52.740Z,82.44
2023-03-16T00:20:19.209Z,82.63
2023-03-16T00:22:45.509Z,82.49
2023-03-16T00:25:12.774Z,82.59
2023-03-16T00:27:39.345Z,82.80
2023-03-16T00:30:05.824Z,83.03
2023-03-16T00:32:33.583Z,83.37
2023-03-16T00:35:00.711Z,83.46
2023-03-16T00:37:27.921Z,83.75
2023-03-16T00:39:54.750Z,83.95
2023-03-16T00:42:21.653Z,83.93
2023-03-16T00:44:47.921Z,83.90
2023-03-16T00:47:14.676Z,83.91
2023-03-16T00:49:42.565Z,83.91
2023-03-16T00:52:10.102Z,84.13
2023-03-16T00:54:36.447Z,84.14
2023-03-16T00:57:03.384Z,84.10
2023-03-16T00:59:29.916Z,84.20
2023-03-16T01:01:56.240Z,84.41
2023-03-16T01:04:22.703Z,84.46
2023-03-16T01:06:49.271Z,84.42
2023-03-16T01:09:15.575Z,84.57
2023-03-16T01:11:42.078Z,84.43
2023-03-16T01:14:09.262Z,84.55
2023-03-16T01:16:35.650Z,84.74
2023-03-16T01:19:02.054Z,84.76
2023-03-16T01:21:28.323Z,84.77
2023-03-16T01:23:54.597Z,84.83
2023-03-16T01:26:21.426Z,84.85
2023-03-16T01:28:47.897Z,84.88
2023-03-16T01:31:15.335Z,85.06
2023-03-16T01:33:42.398Z,85.11
2023-03-16T01:36:12.711Z,85.16
2023-03-16T01:38:52.903Z,85.26
2023-03-16T01:41:19.334Z,85.24
2023-03-16T01:43:46.047Z,85.20
2023-03-16T01:46:14.205Z,85.49
2023-03-16T01:48:43.353Z,85.52
2023-03-16T01:51:14.075Z,85.55
2023-03-16T01:53:43.107Z,85.37
2023-03-16T01:56:10.988Z,85.48
2023-03-16T01:58:37.941Z,85.83
2023-03-16T02:01:04.362Z,85.85
2023-03-16T02:03:32.062Z,86.01
2023-03-16T02:06:11.776Z,86.18
2023-03-16T02:08:42.754Z,86.19
2023-03-16T02:11:09.265Z,86.17
2023-03-16T02:13:44.653Z,86.16
2023-03-16T02:16:11.677Z,86.11
2023-03-16T02:18:38.131Z,86.28
2023-03-16T02:21:18.406Z,86.22
2023-03-16T02:23:45.393Z,86.37
2023-03-16T02:26:20.057Z,86.36
2023-03-16T02:29:09.577Z,86.24
2023-03-16T02:31:36.610Z,86.42
2023-03-16T02:34:03.556Z,86.36
2023-03-16T02:36:30.196Z,86.45
2023-03-16T02:38:56.532Z,86.64
2023-03-16T02:41:23.577Z,86.58
2023-03-16T02:44:03.863Z,86.75
2023-03-16T02:46:32.912Z,86.86
2023-03-16T02:48:59.304Z,86.92
2023-03-16T02:51:25.565Z,87.05
2023-03-16T02:53:53.129Z,87.11
2023-03-16T02:56:19.855Z,87.22
2023-03-16T02:58:46.369Z,87.15
2023-03-16T03:01:16.008Z,87.25
2023-03-16T03:03:42.420Z,87.25
2023-03-16T03:06:08.865Z,87.28
2023-03-16T03:08:36.187Z,87.26
2023-03-16T03:11:02.687Z,87.08
2023-03-16T03:13:28.973Z,87.07
2023-03-16T03:15:55.467Z,87.27
2023-03-16T03:18:23.957Z,87.23
2023-03-16T03:20:51.186Z,87.16
2023-03-16T03:23:17.543Z,87.34
2023-03-16T03:25:44.097Z,87.29
2023-03-16T03:28:10.654Z,87.26
2023-03-16T03:30:37.174Z,87.42
2023-03-16T03:33:03.867Z,87.48
2023-03-16T03:35:30.547Z,87.55
2023-03-16T03:37:57.017Z,87.79
2023-03-16T03:40:23.736Z,87.61
2023-03-16T03:42:56.289Z,87.61
2023-03-16T03:45:22.782Z,87.64
2023-03-16T03:47:49.208Z,87.74
2023-03-16T03:50:18.780Z,87.64
2023-03-16T03:53:05.458Z,87.74
2023-03-16T03:55:34.383Z,87.85
2023-03-16T03:58:00.951Z,87.82
2023-03-16T04:00:28.677Z,87.62
2023-03-16T04:02:55.578Z,87.41
2023-03-16T04:05:27.645Z,87.41
2023-03-16T04:07:54.675Z,87.65
2023-03-16T04:10:21.182Z,87.69
2023-03-16T04:12:47.508Z,87.79
2023-03-16T04:15:13.855Z,87.90
2023-03-16T04:18:00.346Z,87.91
2023-03-16T04:20:27.429Z,88.09
2023-03-16T04:22:54.111Z,88.13
2023-03-16T04:25:21.299Z,88.08
2023-03-16T04:27:48.101Z,88.10
2023-03-16T04:30:14.987Z,88.12
2023-03-16T04:32:45.470Z,88.06
2023-03-16T04:35:13.994Z,87.85
2023-03-16T04:37:45.487Z,87.99
2023-03-16T04:40:12.154Z,88.17
2023-03-16T04:42:38.470Z,88.20
2023-03-16T04:45:06.264Z,87.92
2023-03-16T04:47:32.528Z,87.92
2023-03-16T04:49:59.879Z,88.10
2023-03-16T04:52:26.178Z,88.31
2023-03-16T04:54:52.565Z,88.43
2023-03-16T04:57:19.327Z,87.78
2023-03-16T04:59:48.628Z,87.97
2023-03-16T05:02:25.951Z,88.18
2023-03-16T05:04:52.299Z,88.54
2023-03-16T05:07:19.384Z,88.51
2023-03-16T05:09:48.997Z,88.60
2023-03-16T05:12:33.927Z,88.65
2023-03-16T05:15:03.083Z,88.53
2023-03-16T05:17:41.287Z,88.54
2023-03-16T05:20:14.058Z,88.52
2023-03-16T05:22:45.246Z,88.68
2023-03-16T05:25:18.988Z,88.47
2023-03-16T05:27:48.861Z,88.13
2023-03-16T05:30:19.787Z,88.05
2023-03-16T05:32:46.461Z,88.21
2023-03-16T05:35:13.499Z,88.41
2023-03-16T05:37:41.484Z,88.42
2023-03-16T05:40:12.729Z,88.15
2023-03-16T05:42:38.991Z,88.02
2023-03-16T05:45:06.236Z,88.15
2023-03-16T05:47:44.850Z,88.10
2023-03-16T05:50:13.209Z,87.94
2023-03-16T05:52:41.115Z,87.71
2023-03-16T05:55:15.233Z,87.70
2023-03-16T05:57:42.548Z,87.51
2023-03-16T06:00:10.556Z,87.26
2023-03-16T06:02:38.673Z,86.92
2023-03-16T06:05:05.794Z,86.60
2023-03-16T06:07:32.469Z,86.70
2023-03-16T06:09:59.472Z,86.98
2023-03-16T06:12:26.517Z,87.20
2023-03-16T06:14:52.811Z,87.13
2023-03-16T06:17:19.250Z,87.18
2023-03-16T06:19:45.629Z,87.12
2023-03-16T06:22:11.939Z,86.66
2023-03-16T06:24:38.678Z,86.49
2023-03-16T06:27:04.999Z,86.55
2023-03-16T06:29:36.122Z,86.18
2023-03-16T06:32:02.816Z,86.20
2023-03-16T06:34:29.598Z,86.26
2023-03-16T06:36:56.140Z,86.27
2023-03-16T06:39:22.473Z,86.32
2023-03-16T06:41:50.458Z,86.05
2023-03-16T06:44:17.326Z,85.71
2023-03-16T06:46:54.228Z,85.66
2023-03-16T06:49:21.049Z,85.66
2023-03-16T06:51:47.930Z,85.54
2023-03-16T06:54:14.825Z,85.15
2023-03-16T06:56:41.469Z,84.87
2023-03-16T06:59:07.861Z,85.00
2023-03-16T07:01:36.069Z,85.11
2023-03-16T07:04:02.461Z,85.23
2023-03-16T07:06:30.509Z,85.36
2023-03-16T07:09:15.282Z,84.60
2023-03-16T07:11:46.608Z,84.12
2023-03-16T07:14:12.915Z,83.90
2023-03-16T07:16:40.493Z,83.82
2023-03-16T07:19:09.765Z,84.09
2023-03-16T07:21:36.086Z,83.74
2023-03-16T07:24:03.083Z,83.89
2023-03-16T07:26:31.590Z,83.57
2023-03-16T07:29:12.817Z,83.43
2023-03-16T07:31:39.393Z,83.43
2023-03-16T07:34:12.744Z,83.58
2023-03-16T07:36:46.193Z,83.56
2023-03-16T07:39:14.492Z,83.05
2023-03-16T07:41:41.519Z,82.97
2023-03-16T07:44:14.228Z,82.54
2023-03-16T07:46:40.553Z,82.51
2023-03-16T07:49:06.887Z,81.93
2023-03-16T07:51:33.228Z,81.82
2023-03-16T07:53:59.724Z,81.18
2023-03-16T07:56:36.148Z,81.72
2023-03-16T07:59:09.500Z,81.25
2023-03-16T08:01:36.955Z,81.13
2023-03-16T08:04:03.577Z,80.93
2023-03-16T08:06:30.868Z,80.62
2023-03-16T08:08:57.390Z,80.03
2023-03-16T08:11:30.541Z,80.19
2023-03-16T08:13:59.111Z,80.31
2023-03-16T08:16:33.584Z,80.24
2023-03-16T08:19:03.235Z,79.33
2023-03-16T08:21:29.689Z,79.59
2023-03-16T08:23:55.934Z,79.14
2023-03-16T08:26:23.308Z,78.79
2023-03-16T08:28:58.098Z,77.57
2023-03-16T08:31:24.716Z,77.37
2023-03-16T08:34:06.345Z,77.31
2023-03-16T08:36:36.330Z,76.43
2023-03-16T08:39:07.205Z,76.09
2023-03-16T08:41:41.026Z,76.35
2023-03-16T08:44:12.298Z,75.75
2023-03-16T08:46:39.423Z,75.62
2023-03-16T08:49:09.619Z,73.61
2023-03-16T08:51:36.119Z,73.24
2023-03-16T08:57:34.734Z,72.58
2023-03-16T09:00:05.149Z,72.50
2023-03-16T09:02:42.285Z,72.47
2023-03-16T09:06:05.582Z,71.16
2023-03-16T09:08:32.889Z,71.55
2023-03-16T09:11:03.860Z,71.12
2023-03-16T09:13:31.009Z,71.18
2023-03-16T09:15:57.522Z,71.81
2023-03-16T09:18:23.932Z,71.90
2023-03-16T09:20:50.521Z,71.83
2023-03-16T09:23:17.794Z,72.41
2023-03-16T09:25:44.977Z,71.74
2023-03-16T09:28:11.353Z,70.52
2023-03-16T09:30:38.214Z,70.86
2023-03-16T09:33:06.609Z,70.13
2023-03-16T09:35:35.078Z,68.32
2023-03-16T09:38:06.161Z,67.85
2023-03-16T09:40:36.651Z,66.43
2023-03-16T09:43:24.985Z,65.98
2023-03-16T09:45:58.063Z,66.58
2023-03-16T09:48:30.308Z,65.70
2023-03-16T09:50:58.338Z,64.46
2023-03-16T09:53:27.614Z,64.72
2023-03-16T09:56:01.847Z,65.15
2023-03-16T09:58:30.936Z,64.89
2023-03-16T10:01:16.536Z,64.80
2023-03-16T10:03:50.662Z,65.40
2023-03-16T10:06:18.298Z,64.93
2023-03-16T10:08:50.877Z,63.58
2023-03-16T10:11:20.001Z,61.84
2023-03-16T10:13:59.221Z,59.97
2023-03-16T10:16:32.114Z,58.80
2023-03-16T10:19:07.782Z,58.51
2023-03-16T10:21:36.948Z,58.63
2023-03-16T10:24:20.810Z,58.91
2023-03-16T10:26:50.094Z,56.76
2023-03-16T10:29:16.635Z,57.01
2023-03-16T10:31:45.001Z,55.70
2023-03-16T10:34:13.165Z,56.18
2023-03-16T10:36:43.421Z,55.72
2023-03-16T10:39:11.839Z,53.72
2023-03-16T10:41:53.818Z,53.75
2023-03-16T10:44:24.467Z,54.64
2023-03-16T10:47:05.023Z,54.12
2023-03-16T10:49:38.838Z,54.65
2023-03-16T10:52:29.011Z,55.72
2023-03-16T10:55:01.325Z,55.83
2023-03-16T10:57:32.171Z,56.00
2023-03-16T11:00:13.253Z,54.57
2023-03-16T11:02:39.867Z,53.26
2023-03-16T11:05:13.728Z,51.49
2023-03-16T11:07:47.459Z,50.38
2023-03-16T11:10:25.901Z,48.32
2023-03-16T11:12:52.694Z,46.89
2023-03-16T11:15:29.428Z,46.21
2023-03-16T11:17:56.794Z,46.67
2023-03-16T11:20:26.375Z,47.56
2023-03-16T11:22:52.802Z,46.72
2023-03-16T11:25:38.334Z,46.29
2023-03-16T11:28:05.032Z,46.43
2023-03-16T11:30:40.073Z,46.83
2023-03-16T11:33:12.673Z,47.18
2023-03-16T11:35:58.482Z,47.53
2023-03-16T11:38:44.327Z,48.06
2023-03-16T11:41:12.390Z,46.06
2023-03-16T11:43:56.029Z,44.13
2023-03-16T11:46:29.733Z,44.37
2023-03-16T11:49:19.887Z,44.51
2023-03-16T11:51:46.816Z,44.75
2023-03-16T11:54:15.820Z,45.14
2023-03-16T11:56:49.629Z,45.40
2023-03-16T11:59:36.086Z,45.35
2023-03-16T12:02:09.157Z,45.05
2023-03-16T12:05:04.941Z,46.65
2023-03-16T12:07:35.050Z,47.22
2023-03-16T12:10:11.783Z,47.03
2023-03-16T12:12:38.216Z,46.66
2023-03-16T12:15:04.769Z,47.43
2023-03-16T12:17:34.720Z,47.60
2023-03-16T12:20:06.947Z,47.29
2023-03-16T12:22:34.733Z,46.60
2023-03-16T12:25:02.305Z,46.11
2023-03-16T12:27:35.524Z,45.55
2023-03-16T12:30:20.929Z,44.29
2023-03-16T12:32:58.338Z,42.42
2023-03-16T12:35:36.287Z,42.21
2023-03-16T12:38:27.849Z,41.65
2023-03-16T12:41:12.350Z,41.83
2023-03-16T12:44:01.838Z,42.29
2023-03-16T12:46:35.169Z,42.38
2023-03-16T12:49:04.195Z,40.90
2023-03-16T12:51:42.601Z,41.22
2023-03-16T12:54:37.473Z,40.89
2023-03-16T12:57:07.239Z,41.65
2023-03-16T12:59:39.208Z,41.38
2023-03-16T13:02:09.328Z,42.02
2023-03-16T13:04:40.462Z,41.73
2023-03-16T13:07:08.926Z,41.48
2023-03-16T13:09:40.081Z,40.65
2023-03-16T13:12:08.067Z,40.80
2023-03-16T13:14:36.425Z,40.38
2023-03-16T13:17:21.727Z,41.23
2023-03-16T13:19:59.282Z,42.52
2023-03-16T13:22:29.363Z,42.60
2023-03-16T13:25:10.343Z,42.51
2023-03-16T13:27:37.737Z,43.00
2023-03-16T13:30:32.225Z,42.62
2023-03-16T13:33:25.141Z,40.19
2023-03-16T13:35:52.897Z,39.62
2023-03-16T13:38:21.147Z,39.43
2023-03-16T13:40:48.686Z,39.30
2023-03-16T13:43:16.412Z,37.23
2023-03-16T13:45:44.257Z,35.59
2023-03-16T13:48:14.937Z,35.66
2023-03-16T13:50:42.220Z,36.47
2023-03-16T13:53:18.766Z,37.02
2023-03-16T13:55:48.098Z,37.80
2023-03-16T13:58:30.292Z,38.12
2023-03-16T14:00:59.965Z,39.43
2023-03-16T14:03:32.589Z,40.01
2023-03-16T14:06:16.529Z,40.87
2023-03-16T14:08:46.054Z,41.58
2023-03-16T14:11:12.584Z,41.73
2023-03-16T14:13:39.665Z,41.75
2023-03-16T14:16:10.353Z,42.18
2023-03-16T14:18:40.103Z,42.29
2023-03-16T14:21:07.759Z,42.48
2023-03-16T14:23:39.783Z,42.94
2023-03-16T14:26:10.376Z,42.55
2023-03-16T14:28:36.672Z,43.18
2023-03-16T14:31:05.116Z,43.07
2023-03-16T14:33:33.201Z,42.18
2023-03-16T14:36:06.698Z,42.05
2023-03-16T14:38:34.536Z,41.97
2023-03-16T14:41:24.045Z,42.21
2023-03-16T14:43:51.677Z,42.36
2023-03-16T14:46:24.068Z,42.49
2023-03-16T14:48:50.485Z,42.51
2023-03-16T14:51:17.417Z,42.37
2023-03-16T14:53:43.661Z,41.76
2023-03-16T14:56:11.154Z,42.26
2023-03-16T14:58:37.874Z,42.60
2023-03-16T15:01:04.339Z,42.58
2023-03-16T15:03:31.997Z,42.20
2023-03-16T15:05:58.322Z,42.54
2023-03-16T15:08:26.665Z,43.18
2023-03-16T15:10:55.343Z,43.53
2023-03-16T15:13:22.057Z,43.78
2023-03-16T15:15:49.400Z,43.86
2023-03-16T15:18:15.677Z,44.33
2023-03-16T15:20:42.973Z,44.10
2023-03-16T15:23:14.037Z,44.59
2023-03-16T15:25:42.201Z,45.09
2023-03-16T15:28:10.469Z,45.07
2023-03-16T15:30:36.764Z,44.88
2023-03-16T15:33:03.726Z,44.67
2023-03-16T15:35:30.250Z,44.92
2023-03-16T15:37:56.562Z,45.27
2023-03-16T15:40:28.067Z,45.30
2023-03-16T15:42:54.697Z,45.16
2023-03-16T15:45:21.889Z,44.90
2023-03-16T15:47:49.334Z,45.37
2023-03-16T15:50:17.216Z,45.08
2023-03-16T15:52:45.033Z,45.67
2023-03-16T15:55:22.231Z,45.10
2023-03-16T15:57:50.817Z,44.92
2023-03-16T16:00:31.746Z,45.13
2023-03-16T16:02:58.718Z,45.31
2023-03-16T16:05:25.416Z,45.20
2023-03-16T16:07:52.856Z,45.53
2023-03-16T16:10:20.324Z,45.31
2023-03-16T16:12:48.706Z,45.83
2023-03-16T16:15:17.789Z,45.83
2023-03-16T16:17:57.449Z,46.28
2023-03-16T16:20:31.101Z,46.35
2023-03-16T16:22:58.162Z,46.60
2023-03-16T16:25:25.348Z,46.79
2023-03-16T16:27:51.667Z,46.86
2023-03-16T16:30:20.355Z,47.24
2023-03-16T16:32:47.016Z,47.23
2023-03-16T16:35:19.360Z,47.40
2023-03-16T16:37:45.859Z,47.77
2023-03-16T16:40:16.154Z,47.82
2023-03-16T16:42:43.089Z,47.66
2023-03-16T16:45:17.514Z,48.08
2023-03-16T16:47:44.334Z,48.29
2023-03-16T16:50:14.815Z,48.36
2023-03-16T16:52:41.055Z,48.54
2023-03-16T16:55:07.873Z,48.76
2023-03-16T16:57:34.672Z,48.65
2023-03-16T17:00:01.697Z,48.67
2023-03-16T17:02:39.803Z,48.90
2023-03-16T17:05:13.601Z,49.00
2023-03-16T17:07:39.910Z,49.17
2023-03-16T17:10:06.536Z,49.09
2023-03-16T17:12:33.074Z,49.19
2023-03-16T17:14:59.496Z,49.36
2023-03-16T17:17:25.841Z,49.42
2023-03-16T17:19:52.263Z,49.67
2023-03-16T17:22:23.609Z,49.63
2023-03-16T17:24:50.683Z,49.78
2023-03-16T17:27:20.952Z,49.93
2023-03-16T17:29:47.270Z,50.07
2023-03-16T17:32:17.601Z,50.26
2023-03-16T17:34:44.608Z,50.47
2023-03-16T17:37:18.200Z,50.56
2023-03-16T17:39:45.223Z,50.60
2023-03-16T17:42:15.896Z,50.79
2023-03-16T17:44:43.731Z,51.08
2023-03-16T17:47:14.830Z,51.30
2023-03-16T17:49:41.326Z,51.51
2023-03-16T17:52:28.247Z,51.68
2023-03-16T17:54:54.927Z,51.92
2023-03-16T17:57:29.183Z,52.01
2023-03-16T17:59:55.903Z,52.09
2023-03-16T18:02:22.247Z,52.40
2023-03-16T18:04:50.159Z,52.83
2023-03-16T18:07:17.267Z,53.27
2023-03-16T18:09:43.807Z,53.75
2023-03-16T18:12:10.535Z,54.16
2023-03-16T18:14:38.504Z,54.57
2023-03-16T18:17:14.530Z,54.74
2023-03-16T18:19:41.432Z,54.92
2023-03-16T18:22:17.283Z,55.16
2023-03-16T18:24:44.472Z,55.25
2023-03-16T18:27:11.377Z,55.55
2023-03-16T18:29:38.274Z,55.81
2023-03-16T18:32:21.283Z,55.98
2023-03-16T18:34:51.040Z,56.03
2023-03-16T18:37:21.234Z,56.14
2023-03-16T18:39:47.553Z,56.02
2023-03-16T18:42:18.493Z,55.85
2023-03-16T18:44:44.966Z,56.14
2023-03-16T18:47:18.537Z,56.38
2023-03-16T18:49:45.905Z,56.62
2023-03-16T18:52:19.420Z,57.04
2023-03-16T18:54:46.089Z,56.68
2023-03-16T18:57:17.257Z,56.89
2023-03-16T18:59:44.341Z,57.06
2023-03-16T19:02:33.529Z,57.33
2023-03-16T19:05:01.744Z,57.88
2023-03-16T19:07:31.998Z,57.98
2023-03-16T19:10:00.202Z,58.29
2023-03-16T19:12:26.761Z,58.85
2023-03-16T19:14:53.287Z,58.93
2023-03-16T19:17:19.831Z,59.67
2023-03-16T19:19:47.780Z,59.84
2023-03-16T19:22:19.693Z,59.62
2023-03-16T19:24:54.787Z,59.86
2023-03-16T19:27:33.203Z,60.35
2023-03-16T19:29:59.616Z,60.67
2023-03-16T19:32:26.750Z,60.68
2023-03-16T19:34:53.374Z,60.71
2023-03-16T19:37:19.903Z,60.87
2023-03-16T19:39:46.457Z,61.03
2023-03-16T19:42:20.830Z,61.12
2023-03-16T19:44:48.647Z,61.36
2023-03-16T19:47:22.821Z,62.00
2023-03-16T19:49:49.217Z,62.15
2023-03-16T19:52:15.623Z,62.44
2023-03-16T19:54:42.014Z,62.61
2023-03-16T19:57:13.409Z,62.72
2023-03-16T19:59:40.132Z,62.81
2023-03-16T20:02:25.516Z,62.90
2023-03-16T20:04:52.465Z,62.80
2023-03-16T20:07:18.777Z,62.94
2023-03-16T20:09:45.220Z,62.78
2023-03-16T20:12:25.363Z,62.92
2023-03-16T20:14:52.528Z,63.27
2023-03-16T20:17:23.202Z,63.57
2023-03-16T20:19:52.326Z,63.40
2023-03-16T20:22:20.142Z,63.55
2023-03-16T20:24:46.687Z,63.72
2023-03-16T20:27:13.433Z,64.01
2023-03-16T20:29:40.130Z,63.98
2023-03-16T20:32:13.457Z,63.99
2023-03-16T20:34:39.882Z,64.21
2023-03-16T20:37:35.952Z,64.45
2023-03-16T20:40:02.469Z,64.78
2023-03-16T20:42:29.890Z,64.80
2023-03-16T20:44:56.344Z,64.95
2023-03-16T20:47:23.614Z,64.81
2023-03-16T20:49:50.929Z,65.11
2023-03-16T20:52:22.724Z,65.16
2023-03-16T20:54:49.547Z,65.42
2023-03-16T20:57:18.229Z,65.67
2023-03-16T20:59:44.735Z,65.90
2023-03-16T21:02:22.255Z,65.94
2023-03-16T21:04:48.976Z,66.15
2023-03-16T21:07:15.376Z,66.19
2023-03-16T21:09:47.453Z,66.36
2023-03-16T21:12:22.305Z,66.56
2023-03-16T21:14:48.872Z,66.87
2023-03-16T21:17:19.778Z,66.94
2023-03-16T21:19:46.421Z,67.16
2023-03-16T21:22:30.076Z,67.38
2023-03-16T21:24:56.969Z,67.28
2023-03-16T21:27:24.557Z,67.28
2023-03-16T21:29:52.273Z,67.41
2023-03-16T21:32:19.915Z,67.38
2023-03-16T21:34:46.229Z,67.53
2023-03-16T21:37:13.293Z,67.55
2023-03-16T21:39:39.727Z,67.81
2023-03-16T21:42:06.053Z,67.80
2023-03-16T21:44:32.529Z,68.06
2023-03-16T21:46:59.403Z,68.35
2023-03-16T21:49:25.845Z,68.48
2023-03-16T21:51:52.315Z,68.69
2023-03-16T21:54:19.005Z,68.50
2023-03-16T21:56:46.234Z,68.64
2023-03-16T21:59:12.671Z,68.72
2023-03-16T22:01:50.656Z,69.04
2023-03-16T22:04:25.001Z,69.04
2023-03-16T22:06:51.553Z,68.94
2023-03-16T22:09:19.090Z,68.99
2023-03-16T22:11:45.608Z,68.97
2023-03-16T22:14:12.001Z,69.00
2023-03-16T22:16:39.117Z,68.94
2023-03-16T22:19:09.454Z,68.94
2023-03-16T22:21:40.662Z,68.99
2023-03-16T22:24:13.141Z,69.02
2023-03-16T22:26:39.540Z,69.26
2023-03-16T22:29:18.094Z,69.53
2023-03-16T22:31:45.265Z,69.49
2023-03-16T22:34:21.631Z,69.67
2023-03-16T22:36:49.543Z,69.71
2023-03-16T22:39:15.849Z,69.68
2023-03-16T22:41:42.248Z,69.77
2023-03-16T22:44:16.425Z,69.78
2023-03-16T22:46:42.820Z,69.76
2023-03-16T22:49:18.357Z,69.84
2023-03-16T22:51:44.853Z,69.81
2023-03-16T22:54:14.873Z,70.00
2023-03-16T22:56:42.163Z,70.27
2023-03-16T22:59:12.827Z,70.27
2023-03-16T23:01:43.309Z,70.31
2023-03-16T23:04:23.249Z,70.15
2023-03-16T23:06:51.330Z,70.25
2023-03-16T23:09:18.688Z,70.27
2023-03-16T23:11:46.487Z,70.40
2023-03-16T23:14:18.718Z,70.62
2023-03-16T23:16:45.550Z,70.86
2023-03-16T23:19:24.251Z,71.00
2023-03-16T23:21:52.429Z,71.24
2023-03-16T23:24:18.819Z,71.40
2023-03-16T23:26:45.448Z,71.56
2023-03-16T23:29:12.546Z,71.83
2023-03-16T23:31:39.184Z,71.91
2023-03-16T23:34:10.121Z,71.97
2023-03-16T23:36:36.519Z,71.90
2023-03-16T23:39:02.951Z,72.15
2023-03-16T23:41:29.508Z,72.36
2023-03-16T23:43:57.076Z,72.41
2023-03-16T23:46:24.552Z,72.32
2023-03-16T23:48:52.104Z,72.43
2023-03-16T23:51:29.289Z,72.42
2023-03-16T23:53:55.896Z,72.41
2023-03-16T23:56:22.810Z,72.59
2023-03-16T23:58:49.151Z,72.41
